sensor_id;sensor_type;location;lat;lon;timestamp;temperature;humidity
13245;DHT22;6689;53.400;12.486;2023-07-29T00:01:58;19.40;1.00
13245;DHT22;6689;53.400;12.486;2023-07-29T00:04:25;19.40;1.00
13245;DHT22;6689;53.400;12.486;2023-07-29T00:06:53;19.30;1.00
13245;DHT22;6689;53.400;12.486;2023-07-29T00:09:20;19.30;1.00
13245;DHT22;6689;53.400;12.486;2023-07-29T00:11:50;19.30;1.00
13245;DHT22;6689;53.400;12.486;2023-07-29T00:14:19;19.30;1.00
13245;DHT22;6689;53.400;12.486;2023-07-29T00:16:46;19.30;1.00
13245;DHT22;6689;53.400;12.486;2023-07-29T00:19:15;19.30;1.00
13245;DHT22;6689;53.400;12.486;2023-07-29T00:21:43;19.30;1.00
13245;DHT22;6689;53.400;12.486;2023-07-29T00:24:11;19.30;1.00
13245;DHT22;6689;53.400;12.486;2023-07-29T00:26:39;19.30;1.00
13245;DHT22;6689;53.400;12.486;2023-07-29T00:29:07;19.20;1.00
13245;DHT22;6689;53.400;12.486;2023-07-29T00:31:35;19.30;1.00
13245;DHT22;6689;53.400;12.486;2023-07-29T00:34:03;19.30;1.00
13245;DHT22;6689;53.400;12.486;2023-07-29T00:36:30;19.30;1.00
13245;DHT22;6689;53.400;12.486;2023-07-29T00:38:59;19.30;1.00
13245;DHT22;6689;53.400;12.486;2023-07-29T00:41:29;19.30;1.00
13245;DHT22;6689;53.400;12.486;2023-07-29T00:43:56;19.30;1.00
13245;DHT22;6689;53.400;12.486;2023-07-29T00:46:24;19.30;1.00
13245;DHT22;6689;53.400;12.486;2023-07-29T00:48:53;19.30;1.00
13245;DHT22;6689;53.400;12.486;2023-07-29T00:51:21;19.30;1.00
13245;DHT22;6689;53.400;12.486;2023-07-29T00:53:50;19.30;1.00
13245;DHT22;6689;53.400;12.486;2023-07-29T00:56:17;19.30;1.00
13245;DHT22;6689;53.400;12.486;2023-07-29T00:58:48;19.30;1.00
13245;DHT22;6689;53.400;12.486;2023-07-29T01:01:15;19.20;1.00
13245;DHT22;6689;53.400;12.486;2023-07-29T01:03:42;19.30;1.00
13245;DHT22;6689;53.400;12.486;2023-07-29T01:06:18;19.30;1.00
13245;DHT22;6689;53.400;12.486;2023-07-29T01:08:53;19.30;1.00
13245;DHT22;6689;53.400;12.486;2023-07-29T01:11:38;19.30;1.00
13245;DHT22;6689;53.400;12.486;2023-07-29T01:14:19;19.30;1.00
13245;DHT22;6689;53.400;12.486;2023-07-29T01:16:52;19.40;1.00
13245;DHT22;6689;53.400;12.486;2023-07-29T01:19:40;19.30;1.00
13245;DHT22;6689;53.400;12.486;2023-07-29T01:22:11;19.30;1.00
13245;DHT22;6689;53.400;12.486;2023-07-29T01:24:40;19.30;1.00
13245;DHT22;6689;53.400;12.486;2023-07-29T01:27:09;19.30;1.00
13245;DHT22;6689;53.400;12.486;2023-07-29T01:29:36;19.30;1.00
13245;DHT22;6689;53.400;12.486;2023-07-29T01:32:08;19.30;1.00
13245;DHT22;6689;53.400;12.486;2023-07-29T01:34:44;19.30;1.00
13245;DHT22;6689;53.400;12.486;2023-07-29T01:37:16;19.30;1.00
13245;DHT22;6689;53.400;12.486;2023-07-29T01:39:50;19.30;1.00
13245;DHT22;6689;53.400;12.486;2023-07-29T01:42:18;19.20;1.00
13245;DHT22;6689;53.400;12.486;2023-07-29T01:44:45;19.20;1.00
13245;DHT22;6689;53.400;12.486;2023-07-29T01:47:14;19.30;1.00
13245;DHT22;6689;53.400;12.486;2023-07-29T01:49:41;19.30;1.00
13245;DHT22;6689;53.400;12.486;2023-07-29T01:52:09;19.30;1.00
13245;DHT22;6689;53.400;12.486;2023-07-29T01:54:36;19.30;1.00
13245;DHT22;6689;53.400;12.486;2023-07-29T01:57:07;19.30;1.00
13245;DHT22;6689;53.400;12.486;2023-07-29T01:59:34;19.30;1.00
13245;DHT22;6689;53.400;12.486;2023-07-29T02:02:04;19.30;1.00
13245;DHT22;6689;53.400;12.486;2023-07-29T02:04:32;19.30;1.00
13245;DHT22;6689;53.400;12.486;2023-07-29T02:06:59;19.30;1.00
13245;DHT22;6689;53.400;12.486;2023-07-29T02:09:26;19.30;1.00
13245;DHT22;6689;53.400;12.486;2023-07-29T02:11:55;19.30;1.00
13245;DHT22;6689;53.400;12.486;2023-07-29T02:14:26;19.30;1.00
13245;DHT22;6689;53.400;12.486;2023-07-29T02:16:53;19.40;1.00
13245;DHT22;6689;53.400;12.486;2023-07-29T02:19:21;19.40;1.00
13245;DHT22;6689;53.400;12.486;2023-07-29T02:21:48;19.40;1.00
13245;DHT22;6689;53.400;12.486;2023-07-29T02:24:15;19.40;10.50
13245;DHT22;6689;53.400;12.486;2023-07-29T02:26:43;19.40;30.80
13245;DHT22;6689;53.400;12.486;2023-07-29T02:29:10;19.40;41.80
13245;DHT22;6689;53.400;12.486;2023-07-29T02:31:39;19.40;62.50
13245;DHT22;6689;53.400;12.486;2023-07-29T02:34:07;19.40;99.90
13245;DHT22;6689;53.400;12.486;2023-07-29T02:36:34;19.40;99.90
13245;DHT22;6689;53.400;12.486;2023-07-29T02:39:02;19.40;99.90
13245;DHT22;6689;53.400;12.486;2023-07-29T02:41:30;19.40;99.90
13245;DHT22;6689;53.400;12.486;2023-07-29T02:43:59;19.30;99.90
13245;DHT22;6689;53.400;12.486;2023-07-29T02:46:27;19.30;99.90
13245;DHT22;6689;53.400;12.486;2023-07-29T02:48:55;19.30;99.90
13245;DHT22;6689;53.400;12.486;2023-07-29T02:51:23;19.30;99.90
13245;DHT22;6689;53.400;12.486;2023-07-29T02:53:57;19.30;99.90
13245;DHT22;6689;53.400;12.486;2023-07-29T02:56:24;19.30;99.90
13245;DHT22;6689;53.400;12.486;2023-07-29T02:58:52;19.30;99.90
13245;DHT22;6689;53.400;12.486;2023-07-29T03:01:22;19.30;99.90
13245;DHT22;6689;53.400;12.486;2023-07-29T03:03:50;19.20;99.90
13245;DHT22;6689;53.400;12.486;2023-07-29T03:06:20;19.30;99.90
13245;DHT22;6689;53.400;12.486;2023-07-29T03:08:47;19.30;99.90
13245;DHT22;6689;53.400;12.486;2023-07-29T03:11:15;19.30;99.90
13245;DHT22;6689;53.400;12.486;2023-07-29T03:13:43;19.30;99.90
13245;DHT22;6689;53.400;12.486;2023-07-29T03:16:13;19.30;99.90
13245;DHT22;6689;53.400;12.486;2023-07-29T03:18:43;19.30;99.90
13245;DHT22;6689;53.400;12.486;2023-07-29T03:21:10;19.30;99.90
13245;DHT22;6689;53.400;12.486;2023-07-29T03:23:39;19.30;99.90
13245;DHT22;6689;53.400;12.486;2023-07-29T03:26:07;19.30;99.90
13245;DHT22;6689;53.400;12.486;2023-07-29T03:28:38;19.30;99.90
13245;DHT22;6689;53.400;12.486;2023-07-29T03:31:05;19.30;99.90
13245;DHT22;6689;53.400;12.486;2023-07-29T03:33:33;19.30;99.90
13245;DHT22;6689;53.400;12.486;2023-07-29T03:36:02;19.30;99.90
13245;DHT22;6689;53.400;12.486;2023-07-29T03:38:30;19.40;99.90
13245;DHT22;6689;53.400;12.486;2023-07-29T03:41:00;19.40;99.90
13245;DHT22;6689;53.400;12.486;2023-07-29T03:43:28;19.40;99.90
13245;DHT22;6689;53.400;12.486;2023-07-29T03:45:55;19.40;99.90
13245;DHT22;6689;53.400;12.486;2023-07-29T03:48:23;19.40;99.90
13245;DHT22;6689;53.400;12.486;2023-07-29T03:50:50;19.40;99.90
13245;DHT22;6689;53.400;12.486;2023-07-29T03:53:17;19.40;99.90
13245;DHT22;6689;53.400;12.486;2023-07-29T03:55:45;19.40;99.90
13245;DHT22;6689;53.400;12.486;2023-07-29T03:58:15;19.40;99.90
13245;DHT22;6689;53.400;12.486;2023-07-29T04:00:43;19.40;99.90
13245;DHT22;6689;53.400;12.486;2023-07-29T04:03:10;19.40;99.90
13245;DHT22;6689;53.400;12.486;2023-07-29T04:05:37;19.50;99.90
13245;DHT22;6689;53.400;12.486;2023-07-29T04:08:05;19.50;99.90
13245;DHT22;6689;53.400;12.486;2023-07-29T04:10:32;19.50;99.90
13245;DHT22;6689;53.400;12.486;2023-07-29T04:13:04;19.50;99.90
13245;DHT22;6689;53.400;12.486;2023-07-29T04:15:32;19.50;99.90
13245;DHT22;6689;53.400;12.486;2023-07-29T04:18:00;19.50;99.90
13245;DHT22;6689;53.400;12.486;2023-07-29T04:20:27;19.60;99.90
13245;DHT22;6689;53.400;12.486;2023-07-29T04:22:55;19.60;99.90
13245;DHT22;6689;53.400;12.486;2023-07-29T04:25:22;19.60;99.90
13245;DHT22;6689;53.400;12.486;2023-07-29T04:27:49;19.60;99.90
13245;DHT22;6689;53.400;12.486;2023-07-29T04:30:17;19.60;99.90
13245;DHT22;6689;53.400;12.486;2023-07-29T04:32:46;19.70;99.90
13245;DHT22;6689;53.400;12.486;2023-07-29T04:35:14;19.70;99.90
13245;DHT22;6689;53.400;12.486;2023-07-29T04:37:41;19.80;99.90
13245;DHT22;6689;53.400;12.486;2023-07-29T04:40:10;20.10;99.90
13245;DHT22;6689;53.400;12.486;2023-07-29T04:42:38;20.30;99.90
13245;DHT22;6689;53.400;12.486;2023-07-29T04:45:06;20.60;99.90
13245;DHT22;6689;53.400;12.486;2023-07-29T04:47:33;20.90;99.90
13245;DHT22;6689;53.400;12.486;2023-07-29T04:50:02;21.20;87.40
13245;DHT22;6689;53.400;12.486;2023-07-29T04:52:29;21.50;55.70
13245;DHT22;6689;53.400;12.486;2023-07-29T04:54:56;21.80;28.70
13245;DHT22;6689;53.400;12.486;2023-07-29T04:57:27;21.90;5.20
13245;DHT22;6689;53.400;12.486;2023-07-29T04:59:54;22.00;1.00
13245;DHT22;6689;53.400;12.486;2023-07-29T05:02:22;22.00;1.00
13245;DHT22;6689;53.400;12.486;2023-07-29T05:04:49;22.00;1.00
13245;DHT22;6689;53.400;12.486;2023-07-29T05:07:19;21.90;1.00
13245;DHT22;6689;53.400;12.486;2023-07-29T05:09:47;21.90;1.00
13245;DHT22;6689;53.400;12.486;2023-07-29T05:12:15;21.80;1.00
13245;DHT22;6689;53.400;12.486;2023-07-29T05:14:42;21.70;1.00
13245;DHT22;6689;53.400;12.486;2023-07-29T05:17:11;21.70;1.00
13245;DHT22;6689;53.400;12.486;2023-07-29T05:19:39;21.60;1.00
13245;DHT22;6689;53.400;12.486;2023-07-29T05:22:06;21.50;1.00
13245;DHT22;6689;53.400;12.486;2023-07-29T05:24:35;21.50;1.00
13245;DHT22;6689;53.400;12.486;2023-07-29T05:27:04;21.40;1.00
13245;DHT22;6689;53.400;12.486;2023-07-29T05:29:31;21.40;1.00
13245;DHT22;6689;53.400;12.486;2023-07-29T05:31:59;21.60;1.00
13245;DHT22;6689;53.400;12.486;2023-07-29T05:34:27;21.70;1.00
13245;DHT22;6689;53.400;12.486;2023-07-29T05:36:54;21.60;1.00
13245;DHT22;6689;53.400;12.486;2023-07-29T05:39:21;21.70;1.00
13245;DHT22;6689;53.400;12.486;2023-07-29T05:41:51;21.70;1.00
13245;DHT22;6689;53.400;12.486;2023-07-29T05:44:18;21.70;1.00
13245;DHT22;6689;53.400;12.486;2023-07-29T05:46:45;21.70;1.00
13245;DHT22;6689;53.400;12.486;2023-07-29T05:49:13;21.60;1.00
13245;DHT22;6689;53.400;12.486;2023-07-29T05:51:40;21.60;1.00
13245;DHT22;6689;53.400;12.486;2023-07-29T05:54:08;21.50;1.00
13245;DHT22;6689;53.400;12.486;2023-07-29T05:56:35;21.50;1.00
13245;DHT22;6689;53.400;12.486;2023-07-29T05:59:04;21.30;1.00
13245;DHT22;6689;53.400;12.486;2023-07-29T06:01:31;21.30;1.00
13245;DHT22;6689;53.400;12.486;2023-07-29T06:04:02;21.20;1.00
13245;DHT22;6689;53.400;12.486;2023-07-29T06:06:29;21.20;1.00
13245;DHT22;6689;53.400;12.486;2023-07-29T06:08:56;21.20;1.00
13245;DHT22;6689;53.400;12.486;2023-07-29T06:11:24;21.30;1.00
13245;DHT22;6689;53.400;12.486;2023-07-29T06:13:51;21.40;1.00
13245;DHT22;6689;53.400;12.486;2023-07-29T06:16:22;21.50;1.00
13245;DHT22;6689;53.400;12.486;2023-07-29T06:18:50;21.60;1.00
13245;DHT22;6689;53.400;12.486;2023-07-29T06:21:19;21.60;1.00
13245;DHT22;6689;53.400;12.486;2023-07-29T06:23:47;21.60;1.00
13245;DHT22;6689;53.400;12.486;2023-07-29T06:26:14;21.50;1.00
13245;DHT22;6689;53.400;12.486;2023-07-29T06:28:41;21.40;1.00
13245;DHT22;6689;53.400;12.486;2023-07-29T06:31:09;21.40;1.00
13245;DHT22;6689;53.400;12.486;2023-07-29T06:33:38;21.30;1.00
13245;DHT22;6689;53.400;12.486;2023-07-29T06:36:05;21.40;1.90
13245;DHT22;6689;53.400;12.486;2023-07-29T06:38:32;21.40;8.50
13245;DHT22;6689;53.400;12.486;2023-07-29T06:40:59;21.30;11.20
13245;DHT22;6689;53.400;12.486;2023-07-29T06:43:27;21.40;11.90
13245;DHT22;6689;53.400;12.486;2023-07-29T06:45:54;21.60;13.00
13245;DHT22;6689;53.400;12.486;2023-07-29T06:48:22;21.70;9.00
13245;DHT22;6689;53.400;12.486;2023-07-29T06:50:50;21.80;1.00
13245;DHT22;6689;53.400;12.486;2023-07-29T06:53:18;21.90;1.00
13245;DHT22;6689;53.400;12.486;2023-07-29T06:55:45;22.10;1.00
13245;DHT22;6689;53.400;12.486;2023-07-29T06:58:12;22.20;1.00
13245;DHT22;6689;53.400;12.486;2023-07-29T07:00:39;22.30;1.00
13245;DHT22;6689;53.400;12.486;2023-07-29T07:03:10;22.60;1.00
13245;DHT22;6689;53.400;12.486;2023-07-29T07:05:37;22.80;1.00
13245;DHT22;6689;53.400;12.486;2023-07-29T07:08:06;23.00;1.00
13245;DHT22;6689;53.400;12.486;2023-07-29T07:10:35;23.10;1.00
13245;DHT22;6689;53.400;12.486;2023-07-29T07:13:05;23.00;1.00
13245;DHT22;6689;53.400;12.486;2023-07-29T07:15:33;23.10;1.00
13245;DHT22;6689;53.400;12.486;2023-07-29T07:18:00;23.20;1.00
13245;DHT22;6689;53.400;12.486;2023-07-29T07:20:27;23.30;1.00
13245;DHT22;6689;53.400;12.486;2023-07-29T07:22:55;23.50;1.00
13245;DHT22;6689;53.400;12.486;2023-07-29T07:25:24;23.60;1.00
13245;DHT22;6689;53.400;12.486;2023-07-29T07:27:51;23.70;1.00
13245;DHT22;6689;53.400;12.486;2023-07-29T07:30:20;23.60;1.00
13245;DHT22;6689;53.400;12.486;2023-07-29T07:32:47;23.40;1.00
13245;DHT22;6689;53.400;12.486;2023-07-29T07:35:16;23.40;1.00
13245;DHT22;6689;53.400;12.486;2023-07-29T07:37:44;23.40;1.00
13245;DHT22;6689;53.400;12.486;2023-07-29T07:40:12;23.40;1.00
13245;DHT22;6689;53.400;12.486;2023-07-29T07:42:41;23.50;1.00
13245;DHT22;6689;53.400;12.486;2023-07-29T07:45:09;23.50;1.00
13245;DHT22;6689;53.400;12.486;2023-07-29T07:47:38;23.30;1.00
13245;DHT22;6689;53.400;12.486;2023-07-29T07:50:06;23.10;1.00
13245;DHT22;6689;53.400;12.486;2023-07-29T07:52:33;23.00;1.00
13245;DHT22;6689;53.400;12.486;2023-07-29T07:55:00;22.80;1.00
13245;DHT22;6689;53.400;12.486;2023-07-29T07:57:29;22.70;1.00
13245;DHT22;6689;53.400;12.486;2023-07-29T07:59:59;22.70;1.00
13245;DHT22;6689;53.400;12.486;2023-07-29T08:02:27;22.80;1.00
13245;DHT22;6689;53.400;12.486;2023-07-29T08:04:54;22.90;1.00
13245;DHT22;6689;53.400;12.486;2023-07-29T08:07:22;23.10;1.00
13245;DHT22;6689;53.400;12.486;2023-07-29T08:09:49;23.10;1.00
13245;DHT22;6689;53.400;12.486;2023-07-29T08:12:16;23.60;1.00
13245;DHT22;6689;53.400;12.486;2023-07-29T08:14:45;23.90;1.00
13245;DHT22;6689;53.400;12.486;2023-07-29T08:17:14;23.90;1.00
13245;DHT22;6689;53.400;12.486;2023-07-29T08:19:41;23.70;1.00
13245;DHT22;6689;53.400;12.486;2023-07-29T08:22:08;23.50;1.00
13245;DHT22;6689;53.400;12.486;2023-07-29T08:24:36;23.60;1.00
13245;DHT22;6689;53.400;12.486;2023-07-29T08:27:03;23.40;1.00
13245;DHT22;6689;53.400;12.486;2023-07-29T08:29:31;23.30;1.00
13245;DHT22;6689;53.400;12.486;2023-07-29T08:31:58;23.30;1.00
13245;DHT22;6689;53.400;12.486;2023-07-29T08:34:27;23.20;1.00
13245;DHT22;6689;53.400;12.486;2023-07-29T08:36:54;23.10;1.00
13245;DHT22;6689;53.400;12.486;2023-07-29T08:39:21;23.10;1.00
13245;DHT22;6689;53.400;12.486;2023-07-29T08:41:53;23.10;1.00
13245;DHT22;6689;53.400;12.486;2023-07-29T08:44:23;23.00;1.00
13245;DHT22;6689;53.400;12.486;2023-07-29T08:46:51;23.00;1.00
13245;DHT22;6689;53.400;12.486;2023-07-29T08:49:20;22.80;1.00
13245;DHT22;6689;53.400;12.486;2023-07-29T08:51:53;22.90;1.00
13245;DHT22;6689;53.400;12.486;2023-07-29T08:54:21;22.70;1.00
13245;DHT22;6689;53.400;12.486;2023-07-29T08:56:49;22.70;1.00
13245;DHT22;6689;53.400;12.486;2023-07-29T08:59:17;22.60;1.00
13245;DHT22;6689;53.400;12.486;2023-07-29T09:01:45;22.50;1.00
13245;DHT22;6689;53.400;12.486;2023-07-29T09:04:13;22.50;1.00
13245;DHT22;6689;53.400;12.486;2023-07-29T09:06:43;22.40;1.00
13245;DHT22;6689;53.400;12.486;2023-07-29T09:09:13;22.40;1.00
13245;DHT22;6689;53.400;12.486;2023-07-29T09:11:40;22.30;1.00
13245;DHT22;6689;53.400;12.486;2023-07-29T09:14:08;22.30;1.00
13245;DHT22;6689;53.400;12.486;2023-07-29T09:16:37;22.20;1.00
13245;DHT22;6689;53.400;12.486;2023-07-29T09:19:05;22.00;1.00
13245;DHT22;6689;53.400;12.486;2023-07-29T09:21:33;22.10;1.00
13245;DHT22;6689;53.400;12.486;2023-07-29T09:24:03;22.00;1.00
13245;DHT22;6689;53.400;12.486;2023-07-29T09:26:33;21.90;1.00
13245;DHT22;6689;53.400;12.486;2023-07-29T09:29:00;21.90;1.00
13245;DHT22;6689;53.400;12.486;2023-07-29T09:31:29;21.80;1.00
13245;DHT22;6689;53.400;12.486;2023-07-29T09:33:57;21.80;1.00
13245;DHT22;6689;53.400;12.486;2023-07-29T09:36:25;21.80;6.70
13245;DHT22;6689;53.400;12.486;2023-07-29T09:38:53;21.70;1.00
13245;DHT22;6689;53.400;12.486;2023-07-29T09:41:22;21.60;1.00
13245;DHT22;6689;53.400;12.486;2023-07-29T09:43:56;21.60;1.00
13245;DHT22;6689;53.400;12.486;2023-07-29T09:46:26;21.60;1.00
13245;DHT22;6689;53.400;12.486;2023-07-29T09:48:59;21.50;1.00
13245;DHT22;6689;53.400;12.486;2023-07-29T09:51:26;21.50;1.00
13245;DHT22;6689;53.400;12.486;2023-07-29T09:53:53;21.50;1.00
13245;DHT22;6689;53.400;12.486;2023-07-29T09:56:25;21.50;1.00
13245;DHT22;6689;53.400;12.486;2023-07-29T09:58:53;21.60;1.00
13245;DHT22;6689;53.400;12.486;2023-07-29T10:01:25;21.60;1.00
13245;DHT22;6689;53.400;12.486;2023-07-29T10:03:53;21.70;1.00
13245;DHT22;6689;53.400;12.486;2023-07-29T10:06:22;21.70;1.00
13245;DHT22;6689;53.400;12.486;2023-07-29T10:08:52;21.80;1.00
13245;DHT22;6689;53.400;12.486;2023-07-29T10:11:22;21.80;1.00
13245;DHT22;6689;53.400;12.486;2023-07-29T10:13:51;21.80;1.00
13245;DHT22;6689;53.400;12.486;2023-07-29T10:16:18;21.80;1.00
13245;DHT22;6689;53.400;12.486;2023-07-29T10:18:50;21.80;1.00
13245;DHT22;6689;53.400;12.486;2023-07-29T10:21:18;22.10;1.00
13245;DHT22;6689;53.400;12.486;2023-07-29T10:23:47;21.90;1.00
13245;DHT22;6689;53.400;12.486;2023-07-29T10:26:21;21.90;1.00
13245;DHT22;6689;53.400;12.486;2023-07-29T10:28:51;22.00;1.00
13245;DHT22;6689;53.400;12.486;2023-07-29T10:31:21;22.00;1.00
13245;DHT22;6689;53.400;12.486;2023-07-29T10:33:51;22.00;1.00
13245;DHT22;6689;53.400;12.486;2023-07-29T10:36:18;22.00;1.00
13245;DHT22;6689;53.400;12.486;2023-07-29T10:38:46;21.90;1.00
13245;DHT22;6689;53.400;12.486;2023-07-29T10:41:14;22.00;1.00
13245;DHT22;6689;53.400;12.486;2023-07-29T10:43:41;21.90;1.00
13245;DHT22;6689;53.400;12.486;2023-07-29T10:46:16;21.80;1.00
13245;DHT22;6689;53.400;12.486;2023-07-29T10:48:53;21.80;1.00
13245;DHT22;6689;53.400;12.486;2023-07-29T10:51:27;21.70;1.00
13245;DHT22;6689;53.400;12.486;2023-07-29T10:53:57;21.70;1.00
13245;DHT22;6689;53.400;12.486;2023-07-29T10:56:28;21.80;1.00
13245;DHT22;6689;53.400;12.486;2023-07-29T10:58:57;21.80;1.00
13245;DHT22;6689;53.400;12.486;2023-07-29T11:01:27;21.80;1.00
13245;DHT22;6689;53.400;12.486;2023-07-29T11:04:22;21.90;1.00
13245;DHT22;6689;53.400;12.486;2023-07-29T11:07:24;21.90;1.00
13245;DHT22;6689;53.400;12.486;2023-07-29T11:10:00;22.10;1.00
13245;DHT22;6689;53.400;12.486;2023-07-29T11:12:38;22.10;1.00
13245;DHT22;6689;53.400;12.486;2023-07-29T11:15:21;22.20;1.00
13245;DHT22;6689;53.400;12.486;2023-07-29T11:17:50;22.20;1.00
13245;DHT22;6689;53.400;12.486;2023-07-29T11:20:20;22.30;1.00
13245;DHT22;6689;53.400;12.486;2023-07-29T11:22:49;22.40;1.00
13245;DHT22;6689;53.400;12.486;2023-07-29T11:25:18;22.60;1.00
13245;DHT22;6689;53.400;12.486;2023-07-29T11:27:46;22.80;1.00
13245;DHT22;6689;53.400;12.486;2023-07-29T11:30:15;23.00;1.00
13245;DHT22;6689;53.400;12.486;2023-07-29T11:32:44;23.10;1.00
13245;DHT22;6689;53.400;12.486;2023-07-29T11:35:13;23.30;1.00
13245;DHT22;6689;53.400;12.486;2023-07-29T11:37:45;23.40;1.00
13245;DHT22;6689;53.400;12.486;2023-07-29T11:40:16;23.60;1.00
13245;DHT22;6689;53.400;12.486;2023-07-29T11:42:44;23.60;1.00
13245;DHT22;6689;53.400;12.486;2023-07-29T11:45:13;23.80;1.00
13245;DHT22;6689;53.400;12.486;2023-07-29T11:47:40;23.80;1.00
13245;DHT22;6689;53.400;12.486;2023-07-29T11:50:09;24.10;1.00
13245;DHT22;6689;53.400;12.486;2023-07-29T11:52:43;24.40;1.00
13245;DHT22;6689;53.400;12.486;2023-07-29T11:55:14;24.50;1.00
13245;DHT22;6689;53.400;12.486;2023-07-29T11:57:44;24.60;1.00
13245;DHT22;6689;53.400;12.486;2023-07-29T12:00:17;24.60;1.00
13245;DHT22;6689;53.400;12.486;2023-07-29T12:02:45;24.60;1.00
13245;DHT22;6689;53.400;12.486;2023-07-29T12:05:14;24.60;1.00
13245;DHT22;6689;53.400;12.486;2023-07-29T12:07:46;24.60;1.00
13245;DHT22;6689;53.400;12.486;2023-07-29T12:10:14;24.50;99.90
13245;DHT22;6689;53.400;12.486;2023-07-29T12:12:45;24.40;99.90
13245;DHT22;6689;53.400;12.486;2023-07-29T12:15:13;24.30;99.90
13245;DHT22;6689;53.400;12.486;2023-07-29T12:17:40;24.30;99.90
13245;DHT22;6689;53.400;12.486;2023-07-29T12:20:10;24.20;99.90
13245;DHT22;6689;53.400;12.486;2023-07-29T12:22:38;24.10;99.90
13245;DHT22;6689;53.400;12.486;2023-07-29T12:25:08;24.10;99.90
13245;DHT22;6689;53.400;12.486;2023-07-29T12:27:35;24.10;99.90
13245;DHT22;6689;53.400;12.486;2023-07-29T12:30:04;24.00;99.90
13245;DHT22;6689;53.400;12.486;2023-07-29T12:32:31;24.00;99.90
13245;DHT22;6689;53.400;12.486;2023-07-29T12:34:58;24.00;99.90
13245;DHT22;6689;53.400;12.486;2023-07-29T12:37:33;24.00;99.90
13245;DHT22;6689;53.400;12.486;2023-07-29T12:40:01;24.00;1.40
13245;DHT22;6689;53.400;12.486;2023-07-29T12:42:31;24.10;1.00
13245;DHT22;6689;53.400;12.486;2023-07-29T12:44:58;24.20;1.00
13245;DHT22;6689;53.400;12.486;2023-07-29T12:47:26;24.30;99.90
13245;DHT22;6689;53.400;12.486;2023-07-29T12:49:53;24.40;99.90
13245;DHT22;6689;53.400;12.486;2023-07-29T12:52:20;24.40;99.90
13245;DHT22;6689;53.400;12.486;2023-07-29T12:54:49;24.40;99.90
13245;DHT22;6689;53.400;12.486;2023-07-29T12:57:16;24.40;99.90
13245;DHT22;6689;53.400;12.486;2023-07-29T12:59:45;24.40;99.90
13245;DHT22;6689;53.400;12.486;2023-07-29T13:02:14;24.40;99.90
13245;DHT22;6689;53.400;12.486;2023-07-29T13:04:51;24.40;99.90
13245;DHT22;6689;53.400;12.486;2023-07-29T13:07:19;24.50;99.90
13245;DHT22;6689;53.400;12.486;2023-07-29T13:09:46;24.50;99.90
13245;DHT22;6689;53.400;12.486;2023-07-29T13:12:18;24.50;99.90
13245;DHT22;6689;53.400;12.486;2023-07-29T13:14:47;24.30;99.90
13245;DHT22;6689;53.400;12.486;2023-07-29T13:17:14;24.30;99.90
13245;DHT22;6689;53.400;12.486;2023-07-29T13:19:42;24.20;99.90
13245;DHT22;6689;53.400;12.486;2023-07-29T13:22:09;24.10;99.90
13245;DHT22;6689;53.400;12.486;2023-07-29T13:24:37;24.10;99.90
13245;DHT22;6689;53.400;12.486;2023-07-29T13:27:07;23.90;99.90
13245;DHT22;6689;53.400;12.486;2023-07-29T13:29:35;23.80;99.90
13245;DHT22;6689;53.400;12.486;2023-07-29T13:32:05;23.70;99.90
13245;DHT22;6689;53.400;12.486;2023-07-29T13:34:32;23.60;99.90
13245;DHT22;6689;53.400;12.486;2023-07-29T13:37:00;23.50;99.90
13245;DHT22;6689;53.400;12.486;2023-07-29T13:39:28;23.40;1.00
13245;DHT22;6689;53.400;12.486;2023-07-29T13:41:55;23.40;1.00
13245;DHT22;6689;53.400;12.486;2023-07-29T13:44:23;23.40;1.00
13245;DHT22;6689;53.400;12.486;2023-07-29T13:46:51;23.30;1.00
13245;DHT22;6689;53.400;12.486;2023-07-29T13:49:20;23.20;1.00
13245;DHT22;6689;53.400;12.486;2023-07-29T13:51:47;23.20;1.00
13245;DHT22;6689;53.400;12.486;2023-07-29T13:54:14;23.10;1.00
13245;DHT22;6689;53.400;12.486;2023-07-29T13:56:42;23.00;1.00
13245;DHT22;6689;53.400;12.486;2023-07-29T13:59:11;23.00;1.00
13245;DHT22;6689;53.400;12.486;2023-07-29T14:01:38;23.00;1.00
13245;DHT22;6689;53.400;12.486;2023-07-29T14:04:06;23.00;1.00
13245;DHT22;6689;53.400;12.486;2023-07-29T14:06:35;22.90;1.00
13245;DHT22;6689;53.400;12.486;2023-07-29T14:09:02;22.90;1.00
13245;DHT22;6689;53.400;12.486;2023-07-29T14:11:30;22.90;1.00
13245;DHT22;6689;53.400;12.486;2023-07-29T14:13:57;22.80;1.00
13245;DHT22;6689;53.400;12.486;2023-07-29T14:16:24;22.80;1.00
13245;DHT22;6689;53.400;12.486;2023-07-29T14:18:52;22.60;1.00
13245;DHT22;6689;53.400;12.486;2023-07-29T14:21:19;22.60;1.00
13245;DHT22;6689;53.400;12.486;2023-07-29T14:23:50;22.60;1.00
13245;DHT22;6689;53.400;12.486;2023-07-29T14:26:18;22.60;1.00
13245;DHT22;6689;53.400;12.486;2023-07-29T14:28:45;22.60;1.00
13245;DHT22;6689;53.400;12.486;2023-07-29T14:31:13;22.60;1.00
13245;DHT22;6689;53.400;12.486;2023-07-29T14:33:44;22.60;1.00
13245;DHT22;6689;53.400;12.486;2023-07-29T14:36:11;22.60;1.00
13245;DHT22;6689;53.400;12.486;2023-07-29T14:38:38;22.60;1.00
13245;DHT22;6689;53.400;12.486;2023-07-29T14:41:08;22.60;1.00
13245;DHT22;6689;53.400;12.486;2023-07-29T14:43:35;22.70;1.00
13245;DHT22;6689;53.400;12.486;2023-07-29T14:46:04;22.90;1.00
13245;DHT22;6689;53.400;12.486;2023-07-29T14:48:32;23.00;1.00
13245;DHT22;6689;53.400;12.486;2023-07-29T14:51:00;23.20;1.00
13245;DHT22;6689;53.400;12.486;2023-07-29T14:53:27;23.40;1.00
13245;DHT22;6689;53.400;12.486;2023-07-29T14:55:55;23.50;1.00
13245;DHT22;6689;53.400;12.486;2023-07-29T14:58:24;23.80;1.00
13245;DHT22;6689;53.400;12.486;2023-07-29T15:00:52;23.70;1.00
13245;DHT22;6689;53.400;12.486;2023-07-29T15:03:21;23.80;1.00
13245;DHT22;6689;53.400;12.486;2023-07-29T15:05:50;23.90;1.00
13245;DHT22;6689;53.400;12.486;2023-07-29T15:08:18;23.90;1.00
13245;DHT22;6689;53.400;12.486;2023-07-29T15:10:45;24.00;1.00
13245;DHT22;6689;53.400;12.486;2023-07-29T15:13:13;24.00;1.00
13245;DHT22;6689;53.400;12.486;2023-07-29T15:15:42;24.10;1.00
13245;DHT22;6689;53.400;12.486;2023-07-29T15:18:11;24.10;1.00
13245;DHT22;6689;53.400;12.486;2023-07-29T15:20:38;24.00;1.00
13245;DHT22;6689;53.400;12.486;2023-07-29T15:23:06;24.00;1.00
13245;DHT22;6689;53.400;12.486;2023-07-29T15:25:35;24.00;1.00
13245;DHT22;6689;53.400;12.486;2023-07-29T15:28:02;24.00;1.00
13245;DHT22;6689;53.400;12.486;2023-07-29T15:30:29;24.00;1.00
13245;DHT22;6689;53.400;12.486;2023-07-29T15:32:58;23.90;1.00
13245;DHT22;6689;53.400;12.486;2023-07-29T15:35:25;23.80;1.00
13245;DHT22;6689;53.400;12.486;2023-07-29T15:37:53;23.90;1.00
13245;DHT22;6689;53.400;12.486;2023-07-29T15:40:20;23.90;1.00
13245;DHT22;6689;53.400;12.486;2023-07-29T15:42:48;23.90;1.00
13245;DHT22;6689;53.400;12.486;2023-07-29T15:45:15;23.90;1.00
13245;DHT22;6689;53.400;12.486;2023-07-29T15:47:43;24.00;1.00
13245;DHT22;6689;53.400;12.486;2023-07-29T15:50:11;23.90;1.00
13245;DHT22;6689;53.400;12.486;2023-07-29T15:52:40;23.90;1.00